Time;durP1;ratioP1;P1;durP2;ratioP2;P2;SDS_P1;SDS_P2;PMS_P1;PMS_P2;Temp;Humidity;BMP_temperature;BMP_pressure;BME280_temperature;BME280_humidity;BME280_pressure;Samples;Min_cycle;Max_cycle;Signal;HPM_P1;HPM_P2
2022/06/19 13:53:33;;;;;;;;;;;;;;;19.42;56.64;101348.53;5048538;27;20020;-70
2022/06/19 13:55:59;;;;;;;;;;;;;;;19.60;55.82;101364.94;5071064;28;19984;-70
2022/06/19 13:58:28;;;;;;;;;;;;;;;19.68;55.40;101368.81;5054401;28;20030;-71
2022/06/19 14:01:00;;;;;;;;;;;;;;;19.59;53.47;101359.69;5025404;28;19944;-71
2022/06/19 14:06:18;;;;;;;;;;;;;;;19.85;53.67;101381.66;5043484;28;19921;-72
2022/06/19 14:08:52;;;;;;;;;;;;;;;19.86;54.80;101391.41;5063855;28;20272;-71
2022/06/19 14:11:19;;;;;;;;;;;;;;;20.03;52.81;101384.75;5062603;28;20063;-72
2022/06/19 14:13:49;;;;;;;;;;;;;;;19.96;53.13;101404.88;5066086;28;19951;-70
2022/06/19 14:16:24;;;;;;;;;;;;;;;20.05;53.68;101404.16;5094251;28;19944;-71
2022/06/19 14:18:54;;;;;;;;;;;;;;;20.12;53.05;101420.53;5065387;28;19927;-70
2022/06/19 14:21:35;;;;;;;;;;;;;;;19.97;51.84;101403.06;5061993;28;19921;-71
2022/06/19 14:24:00;;;;;;;;;;;;;;;19.73;53.17;101414.66;5064293;28;19924;-70
2022/06/19 14:26:33;;;;;;;;;;;;;;;19.62;54.23;101418.13;5062263;28;19921;-72
2022/06/19 14:29:13;;;;;;;;;;;;;;;19.62;54.09;101410.94;5095946;28;20431;-71
2022/06/19 14:31:39;;;;;;;;;;;;;;;19.48;54.50;101405.84;5061932;28;19920;-70
2022/06/19 14:34:04;;;;;;;;;;;;;;;19.61;54.01;101400.41;5061951;28;19928;-70
2022/06/19 14:36:30;;;;;;;;;;;;;;;19.37;54.94;101388.00;5062498;28;20435;-70
2022/06/19 14:38:57;;;;;;;;;;;;;;;19.37;54.98;101381.81;5046960;28;19975;-70
2022/06/19 14:41:25;;;;;;;;;;;;;;;19.06;56.66;101384.13;5061753;28;19966;-72
2022/06/19 14:43:56;;;;;;;;;;;;;;;18.57;57.00;101373.41;5064949;28;20309;-72
2022/06/19 14:46:32;;;;;;;;;;;;;;;17.93;58.74;101374.34;5061262;28;19997;-70
2022/06/19 14:49:16;;;;;;;;;;;;;;;17.84;59.28;101369.66;5063781;28;19924;-70
2022/06/19 14:51:46;;;;;;;;;;;;;;;17.79;60.54;101372.63;5061628;28;19959;-71
2022/06/19 14:54:11;;;;;;;;;;;;;;;17.79;60.74;101364.66;5062605;28;19925;-69
2022/06/19 14:56:51;;;;;;;;;;;;;;;17.57;62.02;101373.25;5061752;28;20036;-70
2022/06/19 14:59:20;;;;;;;;;;;;;;;17.60;62.32;101368.56;5062758;28;19917;-70
2022/06/19 15:01:49;;;;;;;;;;;;;;;17.37;62.56;101342.72;5061802;28;19993;-71
2022/06/19 15:04:15;;;;;;;;;;;;;;;17.28;61.50;101337.06;5051113;28;20343;-70
2022/06/19 15:06:43;;;;;;;;;;;;;;;17.34;60.66;101301.28;5043071;28;19921;-71
2022/06/19 15:09:10;;;;;;;;;;;;;;;17.32;61.80;101319.13;5049193;28;19921;-70
2022/06/19 15:11:38;;;;;;;;;;;;;;;17.25;62.69;101344.41;5048629;28;20290;-70
2022/06/19 15:14:11;;;;;;;;;;;;;;;17.22;61.98;101349.91;5048972;28;19925;-71
2022/06/19 15:16:42;;;;;;;;;;;;;;;17.36;61.95;101333.06;5048688;28;19983;-71
2022/06/19 15:19:14;;;;;;;;;;;;;;;17.10;62.36;101309.94;5049135;28;20281;-70
2022/06/19 15:21:55;;;;;;;;;;;;;;;17.18;62.65;101319.22;5048224;28;20451;-70
2022/06/19 15:24:25;;;;;;;;;;;;;;;17.23;63.02;101330.38;5048936;28;19971;-70
2022/06/19 15:26:50;;;;;;;;;;;;;;;17.22;63.17;101331.31;5047879;28;20057;-70
2022/06/19 15:29:33;;;;;;;;;;;;;;;17.24;61.86;101311.69;5048433;28;19939;-70
2022/06/19 15:32:02;;;;;;;;;;;;;;;17.23;62.86;101311.78;5046635;28;19924;-71
2022/06/19 15:34:31;;;;;;;;;;;;;;;17.22;62.04;101299.44;5047724;28;19920;-70
2022/06/19 15:36:56;;;;;;;;;;;;;;;17.31;61.92;101293.50;5045276;28;19916;-70
2022/06/19 15:39:28;;;;;;;;;;;;;;;17.23;62.07;101279.91;5030710;28;19923;-69
2022/06/19 15:42:09;;;;;;;;;;;;;;;17.17;62.51;101277.69;5078794;28;20388;-71
2022/06/19 15:44:37;;;;;;;;;;;;;;;17.10;62.58;101258.66;5047019;28;19921;-70
2022/06/19 15:47:06;;;;;;;;;;;;;;;17.21;62.64;101234.00;5047576;28;19999;-70
2022/06/19 15:49:36;;;;;;;;;;;;;;;17.12;63.41;101236.34;5049573;28;19948;-70
2022/06/19 15:52:03;;;;;;;;;;;;;;;16.94;64.31;101221.69;5046981;28;19925;-71
2022/06/19 15:54:30;;;;;;;;;;;;;;;16.87;65.97;101237.13;5050140;28;19917;-71
2022/06/19 15:56:56;;;;;;;;;;;;;;;16.69;66.50;101274.56;5048029;28;20390;-70
2022/06/19 15:59:25;;;;;;;;;;;;;;;16.79;66.85;101290.72;5080440;28;19955;-70
2022/06/19 16:01:53;;;;;;;;;;;;;;;16.68;66.98;101290.56;5047541;28;19952;-72
2022/06/19 16:04:25;;;;;;;;;;;;;;;16.61;66.61;101308.69;5048537;28;19924;-71
2022/06/19 16:06:52;;;;;;;;;;;;;;;16.99;66.08;101328.38;5042169;28;19964;-70
2022/06/19 16:09:19;;;;;;;;;;;;;;;17.10;64.57;101317.06;5048375;28;19921;-69
2022/06/19 16:12:00;;;;;;;;;;;;;;;17.28;62.86;101325.59;5048129;28;19970;-71
2022/06/19 16:14:29;;;;;;;;;;;;;;;17.35;62.18;101329.53;5047240;28;20011;-70
2022/06/19 16:16:56;;;;;;;;;;;;;;;17.06;61.40;101303.16;5047178;28;20494;-70
2022/06/19 16:19:23;;;;;;;;;;;;;;;17.02;57.43;101288.38;5079437;28;20288;-70
2022/06/19 16:21:58;;;;;;;;;;;;;;;16.94;60.22;101286.22;5078997;28;19963;-70
2022/06/19 16:24:25;;;;;;;;;;;;;;;17.09;57.63;101262.28;5052306;28;19986;-70
2022/06/19 16:26:53;;;;;;;;;;;;;;;17.11;59.07;101289.56;5050176;28;20442;-72
2022/06/19 16:29:20;;;;;;;;;;;;;;;17.22;59.20;101318.91;5047481;28;19921;-69
2022/06/19 16:31:51;;;;;;;;;;;;;;;17.23;58.78;101325.06;5047441;28;19948;-70
2022/06/19 16:34:18;;;;;;;;;;;;;;;17.49;56.99;101315.31;5046775;28;19936;-71
2022/06/19 16:45:21;;;;;;;;;;;;;;;17.55;56.65;101356.53;5047169;28;19924;-71
2022/06/19 16:47:46;;;;;;;;;;;;;;;17.28;56.04;101350.34;5047771;28;19917;-70
2022/06/19 16:50:13;;;;;;;;;;;;;;;17.27;57.68;101355.78;5047137;28;19920;-71
2022/06/19 16:52:42;;;;;;;;;;;;;;;16.90;59.17;101353.72;5048268;28;19978;-70
2022/06/19 16:55:14;;;;;;;;;;;;;;;16.92;59.40;101370.38;5046478;28;20545;-71
2022/06/19 16:57:47;;;;;;;;;;;;;;;16.91;60.76;101381.09;5048472;28;19948;-70
2022/06/19 17:00:15;;;;;;;;;;;;;;;16.94;60.21;101375.63;5046076;28;20321;-70
2022/06/19 17:02:56;;;;;;;;;;;;;;;16.96;59.71;101381.69;5048024;28;20012;-70
2022/06/19 17:05:22;;;;;;;;;;;;;;;17.13;59.46;101360.19;5040434;28;20530;-72
2022/06/19 17:10:33;;;;;;;;;;;;;;;17.00;58.52;101357.50;5045895;28;19917;-71
2022/06/19 17:12:58;;;;;;;;;;;;;;;17.04;58.00;101328.94;5047584;28;20456;-70
2022/06/19 17:15:24;;;;;;;;;;;;;;;16.90;59.11;101324.53;5046032;28;19917;-72
2022/06/19 17:17:50;;;;;;;;;;;;;;;16.88;58.21;101328.22;5046256;28;20324;-70
2022/06/19 17:20:18;;;;;;;;;;;;;;;16.69;59.79;101334.72;5046468;28;19917;-71
2022/06/19 17:22:45;;;;;;;;;;;;;;;16.58;59.96;101348.72;5045692;28;20426;-71
2022/06/19 17:25:19;;;;;;;;;;;;;;;16.28;61.06;101356.81;5041326;28;20015;-71
2022/06/19 17:28:00;;;;;;;;;;;;;;;16.38;61.94;101368.53;5042676;28;19929;-72
2022/06/19 17:30:28;;;;;;;;;;;;;;;16.25;62.31;101367.59;5040334;28;19924;-71
2022/06/19 17:32:54;;;;;;;;;;;;;;;16.15;63.23;101389.38;5045783;28;19928;-71
2022/06/19 17:35:35;;;;;;;;;;;;;;;16.14;62.67;101392.97;5043114;28;19932;-71
2022/06/19 17:38:01;;;;;;;;;;;;;;;16.23;63.40;101403.00;5040958;28;19924;-70
2022/06/19 17:40:26;;;;;;;;;;;;;;;16.29;63.06;101403.59;5043770;28;19948;-70
2022/06/19 17:42:57;;;;;;;;;;;;;;;16.27;62.66;101408.97;5040855;28;19925;-70
2022/06/19 17:45:22;;;;;;;;;;;;;;;16.21;62.51;101399.59;5044922;28;19920;-73
2022/06/19 17:47:48;;;;;;;;;;;;;;;16.13;62.80;101401.03;5075846;28;19947;-70
2022/06/19 17:50:29;;;;;;;;;;;;;;;15.98;63.07;101416.06;5043396;28;19929;-71
